Time;durP1;ratioP1;P1;durP2;ratioP2;P2;SDS_P1;SDS_P2;PMS_P1;PMS_P2;Temp;Humidity;BMP_temperature;BMP_pressure;BME280_temperature;BME280_humidity;BME280_pressure;Samples;Min_cycle;Max_cycle;Signal;HPM_P1;HPM_P2
2023/12/23 00:00:15;;;;;;;3.03;1.37;;;;;;;8.85;100.00;97478.28;5075911;28;20232;-72
2023/12/23 00:02:42;;;;;;;4.83;1.33;;;;;;;8.86;100.00;97495.78;5075433;28;20314;-72
2023/12/23 00:05:08;;;;;;;3.80;1.10;;;;;;;8.87;100.00;97505.38;5076015;28;20762;-72
2023/12/23 00:07:35;;;;;;;2.00;0.83;;;;;;;8.82;100.00;97502.59;5076184;28;20204;-73
2023/12/23 00:10:03;;;;;;;3.77;1.20;;;;;;;8.80;100.00;97496.69;5075793;28;20228;-73
2023/12/23 00:12:30;;;;;;;5.30;1.17;;;;;;;8.85;100.00;97499.47;5075872;28;20288;-73
2023/12/23 00:14:56;;;;;;;7.20;1.27;;;;;;;8.81;100.00;97506.25;5075662;28;20221;-73
2023/12/23 00:17:23;;;;;;;3.50;1.00;;;;;;;8.81;100.00;97522.16;5075845;28;20217;-72
2023/12/23 00:19:49;;;;;;;1.93;1.00;;;;;;;8.84;100.00;97508.47;5075267;28;20227;-72
2023/12/23 00:22:15;;;;;;;3.40;1.20;;;;;;;8.84;100.00;97516.41;5075650;28;20204;-72
2023/12/23 00:24:42;;;;;;;2.00;0.97;;;;;;;8.87;100.00;97531.91;5075160;28;20200;-73
2023/12/23 00:27:08;;;;;;;3.80;1.07;;;;;;;8.88;100.00;97526.34;5075616;28;20201;-72
2023/12/23 00:29:34;;;;;;;3.83;1.10;;;;;;;8.84;100.00;97530.50;5075534;28;20231;-72
2023/12/23 00:32:01;;;;;;;3.13;1.03;;;;;;;8.84;100.00;97527.84;5075553;28;20214;-72
2023/12/23 00:34:27;;;;;;;2.87;0.90;;;;;;;8.89;100.00;97527.16;5075396;28;20204;-72
2023/12/23 00:36:54;;;;;;;4.30;1.10;;;;;;;8.85;100.00;97532.09;5075235;28;20231;-72
2023/12/23 00:39:20;;;;;;;4.77;1.10;;;;;;;8.81;100.00;97540.72;5075310;28;20597;-72
2023/12/23 00:41:46;;;;;;;4.87;1.30;;;;;;;8.80;100.00;97533.78;5075005;28;20569;-73
2023/12/23 00:44:13;;;;;;;3.27;1.20;;;;;;;8.72;100.00;97542.84;5075003;28;20209;-72
2023/12/23 00:46:39;;;;;;;3.13;1.00;;;;;;;8.63;100.00;97543.34;5075220;28;20207;-72
2023/12/23 00:49:06;;;;;;;2.77;0.97;;;;;;;8.59;100.00;97542.97;5075163;28;20592;-72
2023/12/23 00:51:32;;;;;;;4.57;1.20;;;;;;;8.56;100.00;97542.59;5074825;28;20208;-72
2023/12/23 00:53:58;;;;;;;3.27;1.07;;;;;;;8.59;100.00;97537.66;5075063;28;20205;-72
2023/12/23 00:56:25;;;;;;;2.20;0.80;;;;;;;8.56;100.00;97564.59;5074940;28;20232;-72
2023/12/23 00:58:51;;;;;;;3.33;0.90;;;;;;;8.54;100.00;97553.41;5074938;28;20211;-72
2023/12/23 01:01:17;;;;;;;2.53;0.83;;;;;;;8.55;100.00;97562.97;5075011;28;20300;-72
2023/12/23 01:03:44;;;;;;;3.27;0.87;;;;;;;8.54;100.00;97565.84;5074900;28;20205;-73
2023/12/23 01:06:11;;;;;;;1.87;0.80;;;;;;;8.52;100.00;97579.31;5074512;28;20204;-72
2023/12/23 01:08:37;;;;;;;4.17;0.97;;;;;;;8.50;100.00;97562.00;5074498;28;20208;-73
2023/12/23 01:11:04;;;;;;;1.63;0.70;;;;;;;8.54;100.00;97565.84;5074682;28;20228;-73
2023/12/23 01:13:30;;;;;;;2.80;1.00;;;;;;;8.58;100.00;97570.50;5074658;28;20207;-72
2023/12/23 01:15:56;;;;;;;2.63;1.00;;;;;;;8.62;100.00;97584.13;5074919;28;20227;-72
2023/12/23 01:18:23;;;;;;;2.20;0.80;;;;;;;8.70;100.00;97575.91;5074621;28;20201;-72
2023/12/23 01:20:49;;;;;;;3.10;0.87;;;;;;;8.66;100.00;97593.25;5074447;28;20231;-72
2023/12/23 01:23:15;;;;;;;2.83;0.80;;;;;;;8.73;100.00;97615.22;5074148;28;20572;-72
2023/12/23 01:25:42;;;;;;;4.30;1.20;;;;;;;8.71;100.00;97594.22;5074130;28;20205;-72
2023/12/23 01:28:09;;;;;;;1.73;0.70;;;;;;;8.66;100.00;97598.56;5074476;28;20211;-72
2023/12/23 01:30:35;;;;;;;1.80;0.90;;;;;;;8.65;100.00;97610.97;5074354;28;20225;-72
2023/12/23 01:33:02;;;;;;;2.37;0.80;;;;;;;8.62;100.00;97610.59;5074413;28;20204;-72
2023/12/23 01:35:28;;;;;;;2.23;0.70;;;;;;;8.62;100.00;97632.63;5073800;28;20252;-72
2023/12/23 01:37:54;;;;;;;2.93;1.10;;;;;;;8.53;100.00;97633.94;5073901;28;20201;-72
2023/12/23 01:40:21;;;;;;;1.83;0.90;;;;;;;8.46;100.00;97619.13;5074105;28;20255;-72
2023/12/23 01:42:48;;;;;;;3.00;0.80;;;;;;;8.50;100.00;97617.63;5074192;28;20215;-72
2023/12/23 01:45:14;;;;;;;1.83;0.70;;;;;;;8.53;100.00;97614.56;5074129;28;20201;-72
2023/12/23 01:47:43;;;;;;;3.97;1.10;;;;;;;8.45;100.00;97636.00;5073851;28;20218;-72
2023/12/23 01:50:10;;;;;;;1.47;0.87;;;;;;;8.48;100.00;97625.81;5074043;28;20681;-72
2023/12/23 01:52:38;;;;;;;2.10;1.10;;;;;;;8.48;100.00;97632.94;5073943;28;20207;-72
2023/12/23 01:55:09;;;;;;;2.60;1.10;;;;;;;8.58;100.00;97639.38;5073869;28;20323;-72
2023/12/23 01:57:36;;;;;;;2.50;1.00;;;;;;;8.59;100.00;97642.81;5073944;28;20217;-72
2023/12/23 02:00:03;;;;;;;2.30;1.33;;;;;;;8.66;100.00;97641.78;5073506;28;20599;-72
2023/12/23 02:02:31;;;;;;;5.50;1.50;;;;;;;8.61;100.00;97662.81;5073570;28;20664;-72
2023/12/23 02:04:57;;;;;;;2.90;1.30;;;;;;;8.58;100.00;97635.91;5073801;28;20207;-72
2023/12/23 02:07:23;;;;;;;1.33;0.93;;;;;;;8.60;100.00;97625.94;5073827;28;20207;-72
2023/12/23 02:09:50;;;;;;;3.23;1.20;;;;;;;8.59;100.00;97634.88;5073362;28;20232;-72
2023/12/23 02:12:27;;;;;;;5.17;1.67;;;;;;;8.63;100.00;97620.19;5073737;28;20205;-73
2023/12/23 02:15:03;;;;;;;5.03;1.10;;;;;;;8.59;100.00;97626.94;5073635;28;20235;-72
2023/12/23 02:17:29;;;;;;;3.17;1.10;;;;;;;8.57;100.00;97621.06;5073668;28;20190;-72
2023/12/23 02:19:55;;;;;;;4.50;1.40;;;;;;;8.57;100.00;97629.00;5073547;28;20234;-72
2023/12/23 02:22:22;;;;;;;2.87;1.20;;;;;;;8.55;100.00;97636.38;5073267;28;20209;-72
2023/12/23 02:24:48;;;;;;;3.33;1.03;;;;;;;8.53;100.00;97643.69;5056661;28;20201;-72
2023/12/23 02:27:18;;;;;;;3.27;1.20;;;;;;;8.56;100.00;97645.94;5073669;28;20282;-72
2023/12/23 02:29:46;;;;;;;4.33;1.30;;;;;;;8.53;100.00;97644.53;5073519;28;20225;-72
2023/12/23 02:32:15;;;;;;;3.10;1.23;;;;;;;8.43;100.00;97632.78;5073271;28;20213;-72
2023/12/23 02:34:42;;;;;;;2.80;1.13;;;;;;;8.36;100.00;97638.13;5073507;28;20248;-73
2023/12/23 02:37:08;;;;;;;2.97;1.10;;;;;;;8.25;100.00;97651.25;5073197;28;20697;-72
2023/12/23 02:39:35;;;;;;;3.13;1.10;;;;;;;8.25;100.00;97636.19;5073194;28;20224;-72
2023/12/23 02:42:01;;;;;;;2.47;1.03;;;;;;;8.26;100.00;97658.97;5073312;28;20215;-72
2023/12/23 02:44:27;;;;;;;3.83;1.00;;;;;;;8.24;100.00;97647.78;5073496;28;20578;-73
2023/12/23 02:46:54;;;;;;;2.90;0.93;;;;;;;8.29;100.00;97653.22;5072958;28;20208;-73
2023/12/23 02:49:20;;;;;;;2.83;1.20;;;;;;;8.38;100.00;97656.47;5077062;28;20239;-72
2023/12/23 02:51:46;;;;;;;4.30;1.03;;;;;;;8.42;100.00;97653.16;5077407;28;20212;-73
2023/12/23 02:54:13;;;;;;;4.10;1.13;;;;;;;8.42;100.00;97657.66;5077044;28;20223;-72
2023/12/23 02:56:39;;;;;;;4.43;1.20;;;;;;;8.44;100.00;97668.84;5077217;28;20231;-72
2023/12/23 02:59:06;;;;;;;2.93;1.27;;;;;;;8.47;100.00;97685.09;5077271;28;20224;-73
2023/12/23 03:01:32;;;;;;;3.17;1.30;;;;;;;8.51;100.00;97664.31;5077331;28;20206;-72
2023/12/23 03:03:58;;;;;;;3.87;1.20;;;;;;;8.50;100.00;97668.78;5077182;28;20212;-72
2023/12/23 03:06:25;;;;;;;3.63;1.50;;;;;;;8.48;100.00;97685.91;5076876;28;20200;-72
2023/12/23 03:08:51;;;;;;;4.73;1.50;;;;;;;8.48;100.00;97672.69;5077605;28;20205;-72
2023/12/23 03:11:17;;;;;;;4.20;1.27;;;;;;;8.47;100.00;97671.06;5077043;28;20266;-72
2023/12/23 03:13:44;;;;;;;4.20;1.20;;;;;;;8.47;100.00;97671.06;5076873;28;20204;-73
2023/12/23 03:16:18;;;;;;;3.67;1.00;;;;;;;8.43;100.00;97667.22;5076905;28;20224;-72
2023/12/23 03:18:45;;;;;;;5.13;1.20;;;;;;;8.40;100.00;97671.09;5076867;28;20208;-73
2023/12/23 03:21:11;;;;;;;4.20;1.57;;;;;;;8.46;100.00;97670.25;5076902;28;20211;-73
2023/12/23 03:23:38;;;;;;;4.63;1.43;;;;;;;8.45;100.00;97678.41;5076528;28;20663;-73
2023/12/23 03:26:04;;;;;;;2.87;1.17;;;;;;;8.50;100.00;97691.81;5076486;28;20565;-73
2023/12/23 03:28:31;;;;;;;4.87;1.53;;;;;;;8.53;100.00;97680.78;5076729;28;20205;-73
2023/12/23 03:30:57;;;;;;;4.27;1.50;;;;;;;8.48;100.00;97677.97;5076555;28;20222;-72
2023/12/23 03:33:23;;;;;;;5.10;1.40;;;;;;;8.53;100.00;97689.56;5076650;28;20201;-72
2023/12/23 03:35:50;;;;;;;2.80;1.40;;;;;;;8.52;100.00;97669.41;5076797;28;20220;-72
2023/12/23 03:38:16;;;;;;;3.03;1.17;;;;;;;8.59;100.00;97672.78;5076193;28;20218;-73
2023/12/23 03:40:43;;;;;;;2.33;1.10;;;;;;;8.52;100.00;97672.06;5076389;28;20225;-72
2023/12/23 03:43:09;;;;;;;2.77;1.20;;;;;;;8.53;100.00;97668.38;5076387;28;20217;-72
2023/12/23 03:45:35;;;;;;;3.03;1.07;;;;;;;8.53;100.00;97681.63;5076434;28;20207;-72
2023/12/23 03:48:02;;;;;;;2.00;0.80;;;;;;;8.51;100.00;97666.97;5076166;28;20239;-73
2023/12/23 03:50:29;;;;;;;2.50;0.90;;;;;;;8.55;100.00;97674.25;5076233;28;20224;-73
2023/12/23 03:52:56;;;;;;;2.37;0.97;;;;;;;8.57;100.00;97682.00;5076034;28;20553;-72
2023/12/23 03:55:29;;;;;;;2.33;1.10;;;;;;;8.57;100.00;97682.00;5075729;28;20208;-72
2023/12/23 03:57:55;;;;;;;4.07;1.10;;;;;;;8.62;100.00;97668.91;5076156;28;20191;-73
2023/12/23 04:00:21;;;;;;;5.30;1.30;;;;;;;8.53;100.00;97659.59;5075110;28;20231;-72
2023/12/23 04:02:48;;;;;;;4.20;1.20;;;;;;;8.62;100.00;97655.66;5076042;28;20204;-72
2023/12/23 04:05:16;;;;;;;2.87;1.07;;;;;;;8.59;100.00;97646.31;5076024;28;20200;-72
2023/12/23 04:07:42;;;;;;;1.80;1.10;;;;;;;8.55;100.00;97639.81;5075963;28;20207;-72
2023/12/23 04:10:09;;;;;;;2.83;0.97;;;;;;;8.46;100.00;97627.84;5075745;28;20228;-72
2023/12/23 04:12:35;;;;;;;5.17;1.27;;;;;;;8.47;100.00;97633.97;5075554;28;20674;-72
2023/12/23 04:15:05;;;;;;;3.57;0.90;;;;;;;8.51;100.00;97633.31;5075307;28;20208;-72
2023/12/23 04:17:31;;;;;;;2.90;0.90;;;;;;;8.55;100.00;97623.13;5075443;28;20654;-72
2023/12/23 04:19:57;;;;;;;1.20;0.80;;;;;;;8.54;100.00;97630.25;5075718;28;20239;-72
2023/12/23 04:22:24;;;;;;;2.73;0.93;;;;;;;8.57;100.00;97629.81;5075665;28;20565;-73
2023/12/23 04:24:50;;;;;;;3.47;1.10;;;;;;;8.51;100.00;97627.22;5075592;28;20201;-72
2023/12/23 04:27:18;;;;;;;1.50;1.00;;;;;;;8.46;100.00;97638.44;5075330;28;20201;-73
2023/12/23 04:29:44;;;;;;;3.43;0.70;;;;;;;8.52;100.00;97634.13;5075307;28;20252;-72
2023/12/23 04:32:11;;;;;;;2.40;0.93;;;;;;;8.55;100.00;97631.84;5075457;28;20200;-72
2023/12/23 04:34:38;;;;;;;1.57;0.80;;;;;;;8.60;100.00;97633.88;5075292;28;20212;-72
2023/12/23 04:37:05;;;;;;;1.80;0.97;;;;;;;8.53;100.00;97627.81;5074987;28;20221;-73
2023/12/23 04:39:31;;;;;;;3.60;1.10;;;;;;;8.50;100.00;97633.53;5074705;28;20227;-73
2023/12/23 04:41:57;;;;;;;1.50;0.80;;;;;;;8.57;100.00;97635.13;5074987;28;20215;-73
2023/12/23 04:44:24;;;;;;;2.23;0.90;;;;;;;8.56;100.00;97635.34;5075128;28;20207;-73
2023/12/23 04:46:51;;;;;;;2.03;1.10;;;;;;;8.56;100.00;97628.19;5075020;28;20196;-72
2023/12/23 04:49:18;;;;;;;2.30;0.90;;;;;;;8.58;100.00;97623.50;5074615;28;20232;-72
2023/12/23 04:51:45;;;;;;;1.67;0.73;;;;;;;8.64;100.00;97632.41;5074884;28;20208;-72
2023/12/23 04:54:13;;;;;;;1.10;0.60;;;;;;;8.65;100.00;97626.88;5074973;28;20208;-72
2023/12/23 04:56:40;;;;;;;2.90;0.80;;;;;;;8.60;100.00;97636.53;5074719;28;20267;-73
2023/12/23 04:59:08;;;;;;;1.97;0.70;;;;;;;8.61;100.00;97638.97;5075022;28;20224;-73
2023/12/23 05:01:34;;;;;;;0.80;0.70;;;;;;;8.65;100.00;97628.72;5074926;28;20200;-72
2023/12/23 05:04:00;;;;;;;2.57;0.80;;;;;;;8.61;100.00;97644.25;5074909;28;20204;-72
2023/12/23 05:06:27;;;;;;;1.17;0.60;;;;;;;8.65;100.00;97636.69;5074755;28;20199;-73
2023/12/23 05:08:53;;;;;;;0.60;0.60;;;;;;;8.66;100.00;97625.06;5074660;28;20204;-73
2023/12/23 05:11:19;;;;;;;1.10;0.80;;;;;;;8.66;100.00;97627.69;5074593;28;20230;-73
2023/12/23 05:13:46;;;;;;;3.17;1.00;;;;;;;8.63;100.00;97622.81;5074134;28;20211;-73
2023/12/23 05:16:12;;;;;;;2.03;0.60;;;;;;;8.65;100.00;97620.78;5074206;28;20227;-73
2023/12/23 05:18:39;;;;;;;0.60;0.60;;;;;;;8.66;100.00;97617.09;5074517;28;20290;-72
2023/12/23 05:21:05;;;;;;;2.03;0.60;;;;;;;8.72;100.00;97626.81;5074531;28;20204;-72
2023/12/23 05:23:32;;;;;;;1.47;0.70;;;;;;;8.64;100.00;97625.25;5074408;28;20201;-72
2023/12/23 05:25:59;;;;;;;2.50;0.60;;;;;;;8.63;100.00;97606.94;5074626;28;20211;-72
2023/12/23 05:28:25;;;;;;;1.40;0.80;;;;;;;8.61;100.00;97614.28;5074503;28;20227;-73
2023/12/23 05:30:51;;;;;;;1.57;0.50;;;;;;;8.66;100.00;97625.88;5074424;28;20225;-72
2023/12/23 05:33:19;;;;;;;3.13;0.60;;;;;;;8.66;100.00;97617.09;5074574;28;20220;-73
2023/12/23 05:35:46;;;;;;;0.70;0.57;;;;;;;8.62;100.00;97621.22;5074345;28;20204;-72
2023/12/23 05:38:12;;;;;;;1.23;0.47;;;;;;;8.61;100.00;97615.13;5074604;28;20205;-73
2023/12/23 05:40:39;;;;;;;0.77;0.40;;;;;;;8.57;100.00;97619.22;5074009;28;20244;-72
2023/12/23 05:43:05;;;;;;;1.13;0.50;;;;;;;8.53;100.00;97627.81;5074112;28;20208;-72
2023/12/23 05:45:32;;;;;;;1.40;0.60;;;;;;;8.53;100.00;97628.63;5073924;28;20204;-72
2023/12/23 05:47:58;;;;;;;0.60;0.40;;;;;;;8.59;100.00;97619.81;5073742;28;20213;-72
2023/12/23 05:50:24;;;;;;;0.30;0.30;;;;;;;8.49;100.00;97619.50;5073772;28;20230;-72
2023/12/23 05:52:51;;;;;;;1.20;0.40;;;;;;;8.50;100.00;97612.34;5073813;28;20201;-72
2023/12/23 05:55:19;;;;;;;0.63;0.40;;;;;;;8.39;100.00;97616.53;5073851;28;20208;-72
2023/12/23 05:57:45;;;;;;;1.10;0.30;;;;;;;8.44;100.00;97598.13;5073735;28;20224;-72
2023/12/23 06:00:12;;;;;;;0.60;0.30;;;;;;;8.52;100.00;97597.06;5073588;28;20221;-72
2023/12/23 06:02:39;;;;;;;1.47;0.27;;;;;;;8.46;100.00;97601.38;5073760;28;20219;-72
2023/12/23 06:05:05;;;;;;;0.53;0.30;;;;;;;8.42;100.00;97591.44;5055962;28;20235;-72
2023/12/23 06:07:32;;;;;;;0.47;0.30;;;;;;;8.51;100.00;97613.97;5073737;28;20200;-72
2023/12/23 06:09:58;;;;;;;1.07;0.40;;;;;;;8.44;100.00;97615.84;5073430;28;20256;-72
2023/12/23 06:12:24;;;;;;;0.30;0.30;;;;;;;8.44;100.00;97613.22;5073533;28;20207;-72
2023/12/23 06:14:53;;;;;;;0.33;0.33;;;;;;;8.53;100.00;97591.53;5073574;28;20211;-72
2023/12/23 06:17:19;;;;;;;0.87;0.30;;;;;;;8.48;100.00;97578.13;5073359;28;20228;-72
2023/12/23 06:19:46;;;;;;;0.40;0.40;;;;;;;8.52;100.00;97584.63;5073369;28;20234;-72
2023/12/23 06:22:12;;;;;;;0.63;0.50;;;;;;;8.55;100.00;97580.72;5072925;28;20209;-72
2023/12/23 06:24:39;;;;;;;0.40;0.30;;;;;;;8.58;100.00;97585.56;5073433;28;20206;-72
2023/12/23 06:27:05;;;;;;;0.57;0.30;;;;;;;8.53;100.00;97580.13;5073580;28;20204;-72
2023/12/23 06:29:31;;;;;;;0.57;0.30;;;;;;;8.49;100.00;97574.47;5073354;28;20224;-72
2023/12/23 06:31:59;;;;;;;0.20;0.20;;;;;;;8.53;100.00;97586.25;5073486;28;20254;-73
2023/12/23 06:34:26;;;;;;;1.20;0.40;;;;;;;8.53;100.00;97599.50;5073552;28;20208;-72
2023/12/23 06:36:52;;;;;;;0.47;0.30;;;;;;;8.50;100.00;97591.97;5073252;28;20232;-72
2023/12/23 06:39:18;;;;;;;0.60;0.30;;;;;;;8.49;100.00;97594.81;5073079;28;20224;-72
2023/12/23 06:41:45;;;;;;;0.47;0.30;;;;;;;8.52;100.00;97591.75;5073138;28;20215;-72
2023/12/23 06:44:11;;;;;;;0.57;0.30;;;;;;;8.49;100.00;97595.66;5073248;28;20200;-72
2023/12/23 06:46:38;;;;;;;0.27;0.27;;;;;;;8.52;100.00;97587.28;5073147;28;20204;-72
2023/12/23 06:49:04;;;;;;;0.23;0.23;;;;;;;8.54;100.00;97592.34;5072764;28;20236;-73
2023/12/23 06:51:30;;;;;;;0.30;0.30;;;;;;;8.52;100.00;97586.44;5073221;28;20204;-73
2023/12/23 06:53:57;;;;;;;0.20;0.20;;;;;;;8.49;100.00;97590.34;5073237;28;20222;-72
2023/12/23 06:56:23;;;;;;;1.00;0.20;;;;;;;8.50;100.00;97581.38;5072806;28;20597;-73
2023/12/23 06:58:50;;;;;;;0.20;0.20;;;;;;;8.41;100.00;97581.88;5073157;28;20204;-72
2023/12/23 07:01:16;;;;;;;0.30;0.30;;;;;;;8.41;100.00;97577.38;5073242;28;20551;-72
2023/12/23 07:03:42;;;;;;;0.30;0.30;;;;;;;8.42;100.00;97578.19;5073087;28;20208;-73
2023/12/23 07:06:13;;;;;;;2.60;0.30;;;;;;;8.41;100.00;97587.19;5072652;28;20212;-72
2023/12/23 07:08:40;;;;;;;0.30;0.30;;;;;;;8.34;100.00;97587.22;5073088;28;20585;-73
2023/12/23 07:11:12;;;;;;;0.50;0.30;;;;;;;8.43;100.00;97587.75;5073000;28;20212;-72
2023/12/23 07:13:38;;;;;;;0.30;0.30;;;;;;;8.46;100.00;97585.47;5072904;28;20672;-72
2023/12/23 07:16:05;;;;;;;1.23;0.30;;;;;;;8.46;100.00;97580.19;5072639;28;20215;-72
2023/12/23 07:18:31;;;;;;;0.23;0.20;;;;;;;8.53;100.00;97596.00;5073124;28;20204;-72
2023/12/23 07:20:58;;;;;;;0.30;0.30;;;;;;;8.55;100.00;97593.97;5072958;28;20224;-72
2023/12/23 07:23:24;;;;;;;0.23;0.23;;;;;;;8.56;100.00;97596.38;5072977;28;20205;-72
2023/12/23 07:25:50;;;;;;;0.37;0.30;;;;;;;8.50;100.00;97613.16;5072900;28;20201;-72
2023/12/23 07:28:17;;;;;;;0.27;0.27;;;;;;;8.47;100.00;97595.03;5072799;28;20207;-72
2023/12/23 07:30:45;;;;;;;0.30;0.30;;;;;;;8.53;100.00;97609.25;5072572;28;20224;-72
2023/12/23 07:33:13;;;;;;;0.97;0.30;;;;;;;8.53;100.00;97627.81;5072541;28;20667;-73
2023/12/23 07:35:39;;;;;;;0.37;0.30;;;;;;;8.54;100.00;97611.69;5075596;28;20215;-72
2023/12/23 07:38:06;;;;;;;0.47;0.20;;;;;;;8.50;100.00;97614.97;5076402;28;20232;-72
2023/12/23 07:40:35;;;;;;;0.40;0.40;;;;;;;8.51;100.00;97616.63;5076098;28;20232;-72
2023/12/23 07:43:01;;;;;;;0.30;0.30;;;;;;;8.53;100.00;97598.66;5075939;28;20240;-72
2023/12/23 07:45:28;;;;;;;0.87;0.40;;;;;;;8.54;100.00;97618.81;5076234;28;20201;-72
2023/12/23 07:47:54;;;;;;;0.77;0.40;;;;;;;8.62;100.00;97618.56;5075574;28;20215;-72
2023/12/23 07:50:21;;;;;;;0.40;0.30;;;;;;;8.65;100.00;97618.13;5076205;28;20231;-73
2023/12/23 07:52:47;;;;;;;0.97;0.30;;;;;;;8.66;100.00;97614.44;5076270;28;20211;-72
2023/12/23 07:55:14;;;;;;;0.40;0.40;;;;;;;8.66;100.00;97620.56;5075917;28;20204;-73
2023/12/23 07:57:42;;;;;;;0.67;0.40;;;;;;;8.71;100.00;97625.22;5075734;28;20216;-72
2023/12/23 08:00:09;;;;;;;0.27;0.23;;;;;;;8.74;100.00;97635.38;5075745;28;20228;-72
2023/12/23 08:02:36;;;;;;;1.03;0.30;;;;;;;8.71;100.00;97641.09;5075936;28;20201;-72
2023/12/23 08:05:02;;;;;;;0.40;0.30;;;;;;;8.77;100.00;97629.63;5075758;28;20201;-72
2023/12/23 08:07:29;;;;;;;0.20;0.20;;;;;;;8.76;100.00;97643.91;5075673;28;20201;-72
2023/12/23 08:09:55;;;;;;;0.30;0.30;;;;;;;8.77;100.00;97640.22;5075352;28;20232;-72
2023/12/23 08:12:22;;;;;;;1.13;0.30;;;;;;;8.73;100.00;97634.56;5075129;28;20589;-72
2023/12/23 08:14:48;;;;;;;0.27;0.27;;;;;;;8.71;100.00;97633.16;5075514;28;20205;-72
2023/12/23 08:17:14;;;;;;;0.20;0.20;;;;;;;8.71;100.00;97633.16;5075338;28;20220;-72
2023/12/23 08:19:41;;;;;;;0.37;0.37;;;;;;;8.72;100.00;97632.13;5075521;28;20224;-72
2023/12/23 08:22:07;;;;;;;0.27;0.20;;;;;;;8.72;100.00;97627.66;5075168;28;20204;-73
2023/12/23 08:24:34;;;;;;;0.50;0.37;;;;;;;8.78;100.00;97644.53;5075105;28;20207;-73
2023/12/23 08:27:01;;;;;;;0.80;0.30;;;;;;;8.73;100.00;97645.16;5075238;28;20269;-72
2023/12/23 08:29:27;;;;;;;0.20;0.20;;;;;;;8.76;100.00;97630.66;5074951;28;20224;-72
2023/12/23 08:31:53;;;;;;;0.40;0.37;;;;;;;8.82;100.00;97613.91;5074939;28;20212;-72
2023/12/23 08:34:20;;;;;;;0.43;0.30;;;;;;;8.86;100.00;97625.66;5075285;28;20225;-72
2023/12/23 08:36:46;;;;;;;1.90;0.40;;;;;;;8.91;100.00;97625.84;5075993;28;20219;-72
2023/12/23 08:39:13;;;;;;;0.67;0.40;;;;;;;8.86;100.00;97628.31;5075054;28;20225;-72
2023/12/23 08:41:39;;;;;;;0.67;0.20;;;;;;;8.91;100.00;97639.09;5075021;28;20211;-73
2023/12/23 08:44:06;;;;;;;2.00;0.30;;;;;;;8.81;100.00;97634.28;5074799;28;20745;-73
2023/12/23 08:46:32;;;;;;;0.20;0.20;;;;;;;8.85;100.00;97626.72;5074644;28;20574;-72
2023/12/23 08:48:59;;;;;;;0.20;0.20;;;;;;;8.93;100.00;97634.38;5074708;28;20251;-72
2023/12/23 08:51:29;;;;;;;0.20;0.20;;;;;;;8.96;100.00;97644.56;5075072;28;20212;-72
2023/12/23 08:53:56;;;;;;;0.30;0.20;;;;;;;8.92;100.00;97638.06;5074936;28;20231;-72
2023/12/23 08:56:22;;;;;;;0.57;0.30;;;;;;;8.97;100.00;97632.94;5074928;28;20201;-72
2023/12/23 08:58:48;;;;;;;0.20;0.20;;;;;;;9.00;100.00;97641.25;5074688;28;20229;-72
2023/12/23 09:01:15;;;;;;;0.20;0.20;;;;;;;8.96;100.00;97618.06;5074864;28;20216;-73
2023/12/23 09:03:41;;;;;;;0.20;0.20;;;;;;;8.97;100.00;97617.81;5074896;28;20211;-72
2023/12/23 09:06:07;;;;;;;0.20;0.20;;;;;;;8.95;100.00;97625.19;5074612;28;20204;-72
2023/12/23 09:08:34;;;;;;;0.17;0.17;;;;;;;8.99;100.00;97618.41;5074658;28;20208;-72
2023/12/23 09:11:05;;;;;;;0.90;0.30;;;;;;;9.00;100.00;97619.25;5074197;28;20232;-72
2023/12/23 09:13:31;;;;;;;0.27;0.27;;;;;;;9.06;100.00;97623.66;5074612;28;20201;-72
2023/12/23 09:16:03;;;;;;;0.20;0.20;;;;;;;9.04;100.00;97625.69;5074389;28;20204;-73
2023/12/23 09:18:29;;;;;;;0.40;0.20;;;;;;;9.05;100.00;97627.34;5074087;28;20698;-72
2023/12/23 09:20:55;;;;;;;0.20;0.20;;;;;;;9.01;100.00;97620.84;5074416;28;20225;-73
2023/12/23 09:23:22;;;;;;;0.40;0.20;;;;;;;9.03;100.00;97642.66;5074293;28;20247;-72
2023/12/23 09:25:48;;;;;;;0.67;0.30;;;;;;;8.96;100.00;97648.00;5074009;28;20570;-72
2023/12/23 09:28:14;;;;;;;0.20;0.20;;;;;;;9.00;100.00;97648.41;5073883;28;20565;-72
2023/12/23 09:30:41;;;;;;;0.20;0.20;;;;;;;9.03;100.00;97647.94;5073698;28;20311;-72
2023/12/23 09:33:07;;;;;;;0.20;0.20;;;;;;;9.06;100.00;97634.25;5074162;28;20208;-72
2023/12/23 09:35:33;;;;;;;0.40;0.30;;;;;;;9.06;100.00;97666.88;5074092;28;20200;-73
2023/12/23 09:38:00;;;;;;;0.20;0.20;;;;;;;9.01;100.00;97653.47;5073915;28;20229;-73
2023/12/23 09:40:26;;;;;;;0.93;0.30;;;;;;;9.01;100.00;97682.63;5074043;28;20221;-72
2023/12/23 09:42:53;;;;;;;0.20;0.20;;;;;;;9.03;100.00;97679.75;5073838;28;20205;-73
2023/12/23 09:45:20;;;;;;;0.20;0.20;;;;;;;9.06;100.00;97672.19;5073602;28;20584;-72
2023/12/23 09:47:46;;;;;;;0.50;0.20;;;;;;;9.01;100.00;97681.84;5073954;28;20554;-73
2023/12/23 09:50:13;;;;;;;0.20;0.20;;;;;;;9.03;100.00;97680.59;5073733;28;20237;-72
2023/12/23 09:52:39;;;;;;;0.20;0.20;;;;;;;9.06;100.00;97687.28;5074680;28;20204;-73
2023/12/23 09:55:11;;;;;;;0.30;0.30;;;;;;;9.06;100.00;97682.00;5073855;28;20244;-73
2023/12/23 09:57:38;;;;;;;0.30;0.20;;;;;;;9.08;100.00;97687.88;5072771;28;20552;-72
2023/12/23 10:00:05;;;;;;;0.20;0.20;;;;;;;9.12;100.00;97689.88;5073469;28;20226;-72
2023/12/23 10:02:31;;;;;;;0.20;0.20;;;;;;;9.17;100.00;97674.13;5073781;28;20240;-73
2023/12/23 10:04:57;;;;;;;0.20;0.20;;;;;;;9.12;100.00;97673.16;5073574;28;20240;-72
2023/12/23 10:07:24;;;;;;;0.20;0.20;;;;;;;9.12;100.00;97684.59;5073426;28;20200;-73
2023/12/23 10:09:50;;;;;;;0.20;0.20;;;;;;;9.21;100.00;97693.06;5073238;28;20231;-73
2023/12/23 10:12:17;;;;;;;0.20;0.20;;;;;;;9.17;100.00;97686.56;5073560;28;20212;-72
2023/12/23 10:14:44;;;;;;;0.20;0.20;;;;;;;9.17;100.00;97675.94;5073509;28;20211;-72
2023/12/23 10:17:11;;;;;;;0.20;0.20;;;;;;;9.16;100.00;97674.34;5073279;28;20291;-72
2023/12/23 10:19:38;;;;;;;0.30;0.30;;;;;;;9.17;100.00;97686.56;5072767;28;20231;-72
2023/12/23 10:22:04;;;;;;;0.20;0.20;;;;;;;9.16;100.00;97677.00;5073477;28;20592;-72
2023/12/23 10:24:30;;;;;;;0.20;0.20;;;;;;;9.24;100.00;97677.50;5073447;28;20236;-72
2023/12/23 10:26:59;;;;;;;0.20;0.20;;;;;;;9.17;100.00;97674.13;5072909;28;20234;-72
2023/12/23 10:29:28;;;;;;;0.20;0.20;;;;;;;9.21;100.00;97664.72;5073285;28;20227;-72
2023/12/23 10:31:56;;;;;;;0.20;0.20;;;;;;;9.25;100.00;97651.81;5073092;28;20210;-72
2023/12/23 10:34:29;;;;;;;0.27;0.27;;;;;;;9.24;100.00;97648.31;5073617;28;20690;-72
2023/12/23 10:36:57;;;;;;;0.20;0.20;;;;;;;9.24;100.00;97658.16;5055578;28;20200;-72
2023/12/23 10:39:29;;;;;;;0.20;0.20;;;;;;;9.24;100.00;97652.84;5073326;28;20228;-72
2023/12/23 10:42:02;;;;;;;0.30;0.20;;;;;;;9.27;100.00;97657.69;5072961;28;20191;-72
2023/12/23 10:44:31;;;;;;;0.20;0.20;;;;;;;9.31;100.00;97699.47;5073266;28;20185;-72
2023/12/23 10:46:59;;;;;;;0.30;0.30;;;;;;;9.31;100.00;97664.19;5074308;28;20210;-72
2023/12/23 10:49:26;;;;;;;0.33;0.20;;;;;;;9.24;100.00;97664.25;5072630;28;20229;-72
2023/12/23 10:51:55;;;;;;;0.20;0.20;;;;;;;9.27;100.00;97674.44;5073157;28;20200;-72
2023/12/23 10:54:24;;;;;;;0.20;0.20;;;;;;;9.17;100.00;97646.78;5073107;28;20208;-72
2023/12/23 10:56:53;;;;;;;1.00;0.50;;;;;;;9.23;100.00;97667.94;5072793;28;20725;-72
2023/12/23 10:59:21;;;;;;;0.27;0.27;;;;;;;9.20;100.00;97672.88;5072595;28;20599;-72
2023/12/23 11:01:48;;;;;;;0.30;0.20;;;;;;;9.22;100.00;97670.81;5073055;28;20296;-72
2023/12/23 11:04:14;;;;;;;0.43;0.30;;;;;;;9.23;100.00;97680.41;5072887;28;20583;-72
2023/12/23 11:06:43;;;;;;;0.20;0.20;;;;;;;9.29;100.00;97682.16;5072978;28;20204;-72
2023/12/23 11:09:12;;;;;;;0.30;0.30;;;;;;;9.35;100.00;97670.66;5074653;28;20593;-72
2023/12/23 11:11:41;;;;;;;0.20;0.20;;;;;;;9.25;100.00;97665.06;5076796;28;20205;-72
2023/12/23 11:14:08;;;;;;;0.20;0.20;;;;;;;9.25;100.00;97662.41;5076792;28;20207;-72
2023/12/23 11:16:35;;;;;;;0.20;0.20;;;;;;;9.19;100.00;97656.13;5076682;28;20236;-72
2023/12/23 11:19:04;;;;;;;0.20;0.20;;;;;;;9.25;100.00;97660.59;5076483;28;20239;-72
2023/12/23 11:21:31;;;;;;;0.20;0.20;;;;;;;9.25;100.00;97662.41;5059322;28;20245;-72
2023/12/23 11:23:58;;;;;;;0.20;0.20;;;;;;;9.31;100.00;97664.19;5076673;28;20604;-72
2023/12/23 11:26:37;;;;;;;0.67;0.30;;;;;;;9.34;100.00;97675.19;5076505;28;20413;-72
2023/12/23 11:29:14;;;;;;;0.30;0.30;;;;;;;9.42;100.00;97666.13;5076008;28;20256;-72
2023/12/23 11:31:40;;;;;;;0.10;0.10;;;;;;;9.33;100.00;97667.44;5076560;28;20192;-72